sensor_id;sensor_type;location;lat;lon;timestamp;temperature;humidity
2202;DHT22;1107;48.654;9.250;2022-08-18T00:02:04;18.50;1.00
2202;DHT22;1107;48.654;9.250;2022-08-18T00:04:33;18.60;1.00
2202;DHT22;1107;48.654;9.250;2022-08-18T00:07:04;18.60;1.00
2202;DHT22;1107;48.654;9.250;2022-08-18T00:09:32;18.60;1.00
2202;DHT22;1107;48.654;9.250;2022-08-18T00:12:01;18.60;1.00
2202;DHT22;1107;48.654;9.250;2022-08-18T00:14:29;18.60;1.00
2202;DHT22;1107;48.654;9.250;2022-08-18T00:16:58;18.60;1.00
2202;DHT22;1107;48.654;9.250;2022-08-18T00:19:25;18.60;1.00
2202;DHT22;1107;48.654;9.250;2022-08-18T00:21:52;18.60;1.00
2202;DHT22;1107;48.654;9.250;2022-08-18T00:24:19;18.60;1.00
2202;DHT22;1107;48.654;9.250;2022-08-18T00:26:46;18.60;1.00
2202;DHT22;1107;48.654;9.250;2022-08-18T00:29:13;18.50;1.00
2202;DHT22;1107;48.654;9.250;2022-08-18T00:31:40;18.40;1.00
2202;DHT22;1107;48.654;9.250;2022-08-18T00:34:09;18.40;1.00
2202;DHT22;1107;48.654;9.250;2022-08-18T00:36:36;18.40;1.00
2202;DHT22;1107;48.654;9.250;2022-08-18T00:39:03;18.50;1.00
2202;DHT22;1107;48.654;9.250;2022-08-18T00:41:30;18.50;1.00
2202;DHT22;1107;48.654;9.250;2022-08-18T00:43:57;18.50;1.00
2202;DHT22;1107;48.654;9.250;2022-08-18T00:46:27;18.60;1.00
2202;DHT22;1107;48.654;9.250;2022-08-18T00:48:55;18.70;1.00
2202;DHT22;1107;48.654;9.250;2022-08-18T00:51:28;18.60;99.90
2202;DHT22;1107;48.654;9.250;2022-08-18T00:54:01;18.60;1.00
2202;DHT22;1107;48.654;9.250;2022-08-18T00:56:33;18.60;1.00
2202;DHT22;1107;48.654;9.250;2022-08-18T00:59:06;18.60;1.00
2202;DHT22;1107;48.654;9.250;2022-08-18T01:01:34;18.70;1.00
2202;DHT22;1107;48.654;9.250;2022-08-18T01:04:06;18.70;1.00
2202;DHT22;1107;48.654;9.250;2022-08-18T01:06:39;18.70;1.00
2202;DHT22;1107;48.654;9.250;2022-08-18T01:09:08;18.80;1.00
2202;DHT22;1107;48.654;9.250;2022-08-18T01:11:37;18.80;1.00
2202;DHT22;1107;48.654;9.250;2022-08-18T01:14:05;18.80;1.00
2202;DHT22;1107;48.654;9.250;2022-08-18T01:16:33;18.80;1.00
2202;DHT22;1107;48.654;9.250;2022-08-18T01:19:19;18.90;1.00
2202;DHT22;1107;48.654;9.250;2022-08-18T01:22:12;18.90;1.00
2202;DHT22;1107;48.654;9.250;2022-08-18T01:24:42;18.90;1.00
2202;DHT22;1107;48.654;9.250;2022-08-18T01:27:27;18.90;1.00
2202;DHT22;1107;48.654;9.250;2022-08-18T01:30:00;19.00;1.00
2202;DHT22;1107;48.654;9.250;2022-08-18T01:32:28;18.90;1.00
2202;DHT22;1107;48.654;9.250;2022-08-18T01:34:55;18.80;1.00
2202;DHT22;1107;48.654;9.250;2022-08-18T01:37:22;18.70;1.00
2202;DHT22;1107;48.654;9.250;2022-08-18T01:39:51;18.60;1.00
2202;DHT22;1107;48.654;9.250;2022-08-18T01:42:18;18.70;1.00
2202;DHT22;1107;48.654;9.250;2022-08-18T01:44:47;18.80;1.00
2202;DHT22;1107;48.654;9.250;2022-08-18T01:47:16;18.80;1.00
2202;DHT22;1107;48.654;9.250;2022-08-18T01:49:44;18.80;1.00
2202;DHT22;1107;48.654;9.250;2022-08-18T01:52:14;18.80;1.00
2202;DHT22;1107;48.654;9.250;2022-08-18T01:54:44;18.80;1.00
2202;DHT22;1107;48.654;9.250;2022-08-18T01:57:12;18.80;1.00
2202;DHT22;1107;48.654;9.250;2022-08-18T01:59:40;18.80;1.00
2202;DHT22;1107;48.654;9.250;2022-08-18T02:02:08;18.80;1.00
2202;DHT22;1107;48.654;9.250;2022-08-18T02:04:36;18.70;1.00
2202;DHT22;1107;48.654;9.250;2022-08-18T02:07:07;18.70;1.00
2202;DHT22;1107;48.654;9.250;2022-08-18T02:09:36;18.70;1.00
2202;DHT22;1107;48.654;9.250;2022-08-18T02:12:04;18.70;1.00
2202;DHT22;1107;48.654;9.250;2022-08-18T02:14:33;18.70;1.00
2202;DHT22;1107;48.654;9.250;2022-08-18T02:17:02;18.70;1.00
2202;DHT22;1107;48.654;9.250;2022-08-18T02:19:32;18.70;1.00
2202;DHT22;1107;48.654;9.250;2022-08-18T02:22:00;18.70;1.00
2202;DHT22;1107;48.654;9.250;2022-08-18T02:24:27;18.60;1.00
2202;DHT22;1107;48.654;9.250;2022-08-18T02:26:54;18.60;1.00
2202;DHT22;1107;48.654;9.250;2022-08-18T02:29:21;18.70;1.00
2202;DHT22;1107;48.654;9.250;2022-08-18T02:31:49;18.60;99.90
2202;DHT22;1107;48.654;9.250;2022-08-18T02:34:16;18.50;1.00
2202;DHT22;1107;48.654;9.250;2022-08-18T02:36:43;18.50;1.00
2202;DHT22;1107;48.654;9.250;2022-08-18T02:39:11;18.40;1.00
2202;DHT22;1107;48.654;9.250;2022-08-18T02:41:38;18.30;1.00
2202;DHT22;1107;48.654;9.250;2022-08-18T02:44:06;18.20;1.00
2202;DHT22;1107;48.654;9.250;2022-08-18T02:46:33;18.10;1.00
2202;DHT22;1107;48.654;9.250;2022-08-18T02:49:03;18.10;1.00
2202;DHT22;1107;48.654;9.250;2022-08-18T02:51:30;18.10;1.00
2202;DHT22;1107;48.654;9.250;2022-08-18T02:53:57;18.10;1.00
2202;DHT22;1107;48.654;9.250;2022-08-18T02:56:26;18.00;1.00
2202;DHT22;1107;48.654;9.250;2022-08-18T02:58:55;18.00;1.00
2202;DHT22;1107;48.654;9.250;2022-08-18T03:01:25;18.00;1.00
2202;DHT22;1107;48.654;9.250;2022-08-18T03:03:53;18.00;1.00
2202;DHT22;1107;48.654;9.250;2022-08-18T03:06:23;18.00;1.00
2202;DHT22;1107;48.654;9.250;2022-08-18T03:08:51;18.10;1.00
2202;DHT22;1107;48.654;9.250;2022-08-18T03:11:21;18.10;1.00
2202;DHT22;1107;48.654;9.250;2022-08-18T03:13:48;18.10;1.00
2202;DHT22;1107;48.654;9.250;2022-08-18T03:16:15;18.10;1.00
2202;DHT22;1107;48.654;9.250;2022-08-18T03:18:44;18.10;1.00
2202;DHT22;1107;48.654;9.250;2022-08-18T03:21:15;18.10;1.00
2202;DHT22;1107;48.654;9.250;2022-08-18T03:23:44;18.10;1.00
2202;DHT22;1107;48.654;9.250;2022-08-18T03:26:13;18.20;1.00
2202;DHT22;1107;48.654;9.250;2022-08-18T03:28:42;18.20;1.00
2202;DHT22;1107;48.654;9.250;2022-08-18T03:31:10;18.20;1.00
2202;DHT22;1107;48.654;9.250;2022-08-18T03:33:39;18.20;1.00
2202;DHT22;1107;48.654;9.250;2022-08-18T03:36:09;18.20;1.00
2202;DHT22;1107;48.654;9.250;2022-08-18T03:38:37;18.10;1.00
2202;DHT22;1107;48.654;9.250;2022-08-18T03:41:07;18.10;1.00
2202;DHT22;1107;48.654;9.250;2022-08-18T03:43:34;18.20;1.00
2202;DHT22;1107;48.654;9.250;2022-08-18T03:46:01;18.20;1.00
2202;DHT22;1107;48.654;9.250;2022-08-18T03:48:28;18.20;1.00
2202;DHT22;1107;48.654;9.250;2022-08-18T03:51:01;18.20;1.00
2202;DHT22;1107;48.654;9.250;2022-08-18T03:53:29;18.20;1.00
2202;DHT22;1107;48.654;9.250;2022-08-18T03:55:57;18.30;1.00
2202;DHT22;1107;48.654;9.250;2022-08-18T03:58:25;18.20;1.00
2202;DHT22;1107;48.654;9.250;2022-08-18T04:00:52;18.20;1.00
2202;DHT22;1107;48.654;9.250;2022-08-18T04:03:20;18.20;1.00
2202;DHT22;1107;48.654;9.250;2022-08-18T04:05:47;18.10;1.00
2202;DHT22;1107;48.654;9.250;2022-08-18T04:08:14;18.10;1.00
2202;DHT22;1107;48.654;9.250;2022-08-18T04:10:42;18.00;1.00
2202;DHT22;1107;48.654;9.250;2022-08-18T04:13:10;18.00;1.00
2202;DHT22;1107;48.654;9.250;2022-08-18T04:15:38;17.90;1.00
2202;DHT22;1107;48.654;9.250;2022-08-18T04:18:05;17.90;1.00
2202;DHT22;1107;48.654;9.250;2022-08-18T04:20:33;17.80;1.00
2202;DHT22;1107;48.654;9.250;2022-08-18T04:23:01;17.80;1.00
2202;DHT22;1107;48.654;9.250;2022-08-18T04:25:28;17.70;1.00
2202;DHT22;1107;48.654;9.250;2022-08-18T04:27:57;17.60;1.00
2202;DHT22;1107;48.654;9.250;2022-08-18T04:30:26;17.60;1.00
2202;DHT22;1107;48.654;9.250;2022-08-18T04:32:55;17.70;1.00
2202;DHT22;1107;48.654;9.250;2022-08-18T04:35:22;17.70;1.00
2202;DHT22;1107;48.654;9.250;2022-08-18T04:37:49;17.60;1.00
2202;DHT22;1107;48.654;9.250;2022-08-18T04:40:16;17.60;1.00
2202;DHT22;1107;48.654;9.250;2022-08-18T04:42:44;17.60;1.00
2202;DHT22;1107;48.654;9.250;2022-08-18T04:45:11;17.60;1.00
2202;DHT22;1107;48.654;9.250;2022-08-18T04:47:38;17.60;1.00
2202;DHT22;1107;48.654;9.250;2022-08-18T04:50:08;17.70;1.00
2202;DHT22;1107;48.654;9.250;2022-08-18T04:52:36;17.80;1.00
2202;DHT22;1107;48.654;9.250;2022-08-18T04:55:20;17.90;1.00
2202;DHT22;1107;48.654;9.250;2022-08-18T04:57:47;18.00;1.00
2202;DHT22;1107;48.654;9.250;2022-08-18T05:00:14;18.10;1.00
2202;DHT22;1107;48.654;9.250;2022-08-18T05:02:44;18.30;1.00
2202;DHT22;1107;48.654;9.250;2022-08-18T05:05:12;18.40;1.00
2202;DHT22;1107;48.654;9.250;2022-08-18T05:07:43;18.50;1.00
2202;DHT22;1107;48.654;9.250;2022-08-18T05:10:10;18.60;1.00
2202;DHT22;1107;48.654;9.250;2022-08-18T05:12:38;18.70;99.90
2202;DHT22;1107;48.654;9.250;2022-08-18T05:15:08;18.70;99.90
2202;DHT22;1107;48.654;9.250;2022-08-18T05:17:36;18.80;99.90
2202;DHT22;1107;48.654;9.250;2022-08-18T05:20:06;18.90;99.90
2202;DHT22;1107;48.654;9.250;2022-08-18T05:22:37;19.00;99.90
2202;DHT22;1107;48.654;9.250;2022-08-18T05:25:06;19.20;99.90
2202;DHT22;1107;48.654;9.250;2022-08-18T05:27:37;19.20;1.00
2202;DHT22;1107;48.654;9.250;2022-08-18T05:30:06;19.00;60.20
2202;DHT22;1107;48.654;9.250;2022-08-18T05:32:34;18.90;99.90
2202;DHT22;1107;48.654;9.250;2022-08-18T05:35:07;19.00;99.90
2202;DHT22;1107;48.654;9.250;2022-08-18T05:37:43;19.10;1.00
2202;DHT22;1107;48.654;9.250;2022-08-18T05:40:13;19.30;1.00
2202;DHT22;1107;48.654;9.250;2022-08-18T05:42:41;19.40;1.00
2202;DHT22;1107;48.654;9.250;2022-08-18T05:45:21;19.50;1.00
2202;DHT22;1107;48.654;9.250;2022-08-18T05:47:49;19.60;99.90
2202;DHT22;1107;48.654;9.250;2022-08-18T05:50:18;19.60;1.00
2202;DHT22;1107;48.654;9.250;2022-08-18T05:52:51;19.70;1.00
2202;DHT22;1107;48.654;9.250;2022-08-18T05:55:23;19.70;1.00
2202;DHT22;1107;48.654;9.250;2022-08-18T05:58:14;19.70;1.00
2202;DHT22;1107;48.654;9.250;2022-08-18T06:00:48;19.70;99.90
2202;DHT22;1107;48.654;9.250;2022-08-18T06:03:21;19.80;99.90
2202;DHT22;1107;48.654;9.250;2022-08-18T06:05:52;19.60;1.00
2202;DHT22;1107;48.654;9.250;2022-08-18T06:08:27;19.60;99.90
2202;DHT22;1107;48.654;9.250;2022-08-18T06:10:54;19.60;7.20
2202;DHT22;1107;48.654;9.250;2022-08-18T06:13:21;19.50;1.00
2202;DHT22;1107;48.654;9.250;2022-08-18T06:15:53;19.40;99.90
2202;DHT22;1107;48.654;9.250;2022-08-18T06:18:33;19.50;1.00
2202;DHT22;1107;48.654;9.250;2022-08-18T06:21:27;19.50;1.00
2202;DHT22;1107;48.654;9.250;2022-08-18T06:24:05;19.50;8.70
2202;DHT22;1107;48.654;9.250;2022-08-18T06:26:38;19.60;61.20
2202;DHT22;1107;48.654;9.250;2022-08-18T06:29:16;19.80;1.00
2202;DHT22;1107;48.654;9.250;2022-08-18T06:31:55;20.10;1.00
2202;DHT22;1107;48.654;9.250;2022-08-18T06:34:33;20.30;1.00
2202;DHT22;1107;48.654;9.250;2022-08-18T06:37:10;20.50;99.90
2202;DHT22;1107;48.654;9.250;2022-08-18T06:39:45;20.60;99.90
2202;DHT22;1107;48.654;9.250;2022-08-18T06:42:16;20.80;1.00
2202;DHT22;1107;48.654;9.250;2022-08-18T06:44:45;21.00;99.90
2202;DHT22;1107;48.654;9.250;2022-08-18T06:47:19;21.10;1.00
2202;DHT22;1107;48.654;9.250;2022-08-18T06:49:56;21.10;20.80
2202;DHT22;1107;48.654;9.250;2022-08-18T06:52:30;21.00;1.00
2202;DHT22;1107;48.654;9.250;2022-08-18T06:55:01;21.00;99.90
2202;DHT22;1107;48.654;9.250;2022-08-18T06:57:31;21.00;1.00
2202;DHT22;1107;48.654;9.250;2022-08-18T07:00:04;21.10;1.00
2202;DHT22;1107;48.654;9.250;2022-08-18T07:02:44;21.20;99.90
2202;DHT22;1107;48.654;9.250;2022-08-18T07:05:19;21.10;99.90
2202;DHT22;1107;48.654;9.250;2022-08-18T07:08:02;21.10;1.00
2202;DHT22;1107;48.654;9.250;2022-08-18T07:10:35;20.90;99.90
2202;DHT22;1107;48.654;9.250;2022-08-18T07:13:16;20.90;1.00
2202;DHT22;1107;48.654;9.250;2022-08-18T07:15:44;21.00;1.00
2202;DHT22;1107;48.654;9.250;2022-08-18T07:18:13;21.00;99.90
2202;DHT22;1107;48.654;9.250;2022-08-18T07:20:43;20.70;1.00
2202;DHT22;1107;48.654;9.250;2022-08-18T07:23:22;20.50;1.00
2202;DHT22;1107;48.654;9.250;2022-08-18T07:25:59;20.20;1.00
2202;DHT22;1107;48.654;9.250;2022-08-18T07:28:28;20.00;1.00
2202;DHT22;1107;48.654;9.250;2022-08-18T07:31:11;19.80;1.00
2202;DHT22;1107;48.654;9.250;2022-08-18T07:33:40;19.70;1.00
2202;DHT22;1107;48.654;9.250;2022-08-18T07:36:10;19.50;1.00
2202;DHT22;1107;48.654;9.250;2022-08-18T07:38:43;19.40;1.00
2202;DHT22;1107;48.654;9.250;2022-08-18T07:41:15;19.40;1.00
2202;DHT22;1107;48.654;9.250;2022-08-18T07:43:55;19.40;1.00
2202;DHT22;1107;48.654;9.250;2022-08-18T07:46:30;19.50;99.90
2202;DHT22;1107;48.654;9.250;2022-08-18T07:49:00;19.50;99.90
2202;DHT22;1107;48.654;9.250;2022-08-18T07:51:33;19.40;99.90
2202;DHT22;1107;48.654;9.250;2022-08-18T07:54:17;19.40;99.90
2202;DHT22;1107;48.654;9.250;2022-08-18T07:56:50;19.40;1.00
2202;DHT22;1107;48.654;9.250;2022-08-18T07:59:23;19.40;99.90
2202;DHT22;1107;48.654;9.250;2022-08-18T08:01:59;19.40;99.90
2202;DHT22;1107;48.654;9.250;2022-08-18T08:04:36;19.40;99.90
2202;DHT22;1107;48.654;9.250;2022-08-18T08:07:08;19.50;99.90
2202;DHT22;1107;48.654;9.250;2022-08-18T08:09:44;19.60;99.90
2202;DHT22;1107;48.654;9.250;2022-08-18T08:12:24;19.70;99.90
2202;DHT22;1107;48.654;9.250;2022-08-18T08:15:03;19.90;99.90
2202;DHT22;1107;48.654;9.250;2022-08-18T08:17:40;20.00;99.90
2202;DHT22;1107;48.654;9.250;2022-08-18T08:20:16;20.10;99.90
2202;DHT22;1107;48.654;9.250;2022-08-18T08:22:57;20.30;99.90
2202;DHT22;1107;48.654;9.250;2022-08-18T08:25:33;20.30;1.00
2202;DHT22;1107;48.654;9.250;2022-08-18T08:28:13;20.40;1.00
2202;DHT22;1107;48.654;9.250;2022-08-18T08:30:47;20.50;99.90
2202;DHT22;1107;48.654;9.250;2022-08-18T08:33:25;20.60;1.00
2202;DHT22;1107;48.654;9.250;2022-08-18T08:35:57;20.70;1.00
2202;DHT22;1107;48.654;9.250;2022-08-18T08:38:36;20.90;1.00
2202;DHT22;1107;48.654;9.250;2022-08-18T08:41:08;21.10;99.90
2202;DHT22;1107;48.654;9.250;2022-08-18T08:43:42;21.40;99.90
2202;DHT22;1107;48.654;9.250;2022-08-18T08:46:14;21.60;99.90
2202;DHT22;1107;48.654;9.250;2022-08-18T08:48:47;21.50;1.00
2202;DHT22;1107;48.654;9.250;2022-08-18T08:51:28;21.70;1.00
2202;DHT22;1107;48.654;9.250;2022-08-18T08:54:03;22.70;99.90
2202;DHT22;1107;48.654;9.250;2022-08-18T08:56:35;23.20;19.20
2202;DHT22;1107;48.654;9.250;2022-08-18T08:59:09;23.90;99.90
2202;DHT22;1107;48.654;9.250;2022-08-18T09:01:47;24.20;1.00
2202;DHT22;1107;48.654;9.250;2022-08-18T09:04:35;24.30;1.00
2202;DHT22;1107;48.654;9.250;2022-08-18T09:07:18;25.20;1.00
2202;DHT22;1107;48.654;9.250;2022-08-18T09:10:02;25.90;1.00
2202;DHT22;1107;48.654;9.250;2022-08-18T09:12:54;25.90;1.00
2202;DHT22;1107;48.654;9.250;2022-08-18T09:15:38;25.90;1.00
2202;DHT22;1107;48.654;9.250;2022-08-18T09:18:27;25.80;1.00
2202;DHT22;1107;48.654;9.250;2022-08-18T09:21:01;25.80;1.00
2202;DHT22;1107;48.654;9.250;2022-08-18T09:23:33;26.00;1.00
2202;DHT22;1107;48.654;9.250;2022-08-18T09:26:24;26.40;99.90
2202;DHT22;1107;48.654;9.250;2022-08-18T09:28:55;26.90;99.90
2202;DHT22;1107;48.654;9.250;2022-08-18T09:31:25;27.40;99.90
2202;DHT22;1107;48.654;9.250;2022-08-18T09:34:07;28.20;99.90
2202;DHT22;1107;48.654;9.250;2022-08-18T09:36:47;28.90;99.90
2202;DHT22;1107;48.654;9.250;2022-08-18T09:39:25;29.20;99.90
2202;DHT22;1107;48.654;9.250;2022-08-18T09:42:12;29.40;99.90
2202;DHT22;1107;48.654;9.250;2022-08-18T09:48:20;29.50;99.90
2202;DHT22;1107;48.654;9.250;2022-08-18T09:51:19;30.10;99.90
2202;DHT22;1107;48.654;9.250;2022-08-18T09:54:11;29.60;99.90
2202;DHT22;1107;48.654;9.250;2022-08-18T09:57:16;29.60;99.90
2202;DHT22;1107;48.654;9.250;2022-08-18T10:03:21;30.30;99.90
2202;DHT22;1107;48.654;9.250;2022-08-18T10:06:04;30.20;99.90
2202;DHT22;1107;48.654;9.250;2022-08-18T10:09:03;29.70;99.90
2202;DHT22;1107;48.654;9.250;2022-08-18T10:12:02;30.30;99.90
2202;DHT22;1107;48.654;9.250;2022-08-18T10:14:46;30.60;99.90
2202;DHT22;1107;48.654;9.250;2022-08-18T10:17:27;30.80;99.90
2202;DHT22;1107;48.654;9.250;2022-08-18T10:20:06;30.80;99.90
2202;DHT22;1107;48.654;9.250;2022-08-18T10:22:39;30.50;99.90
2202;DHT22;1107;48.654;9.250;2022-08-18T10:25:09;30.20;99.90
2202;DHT22;1107;48.654;9.250;2022-08-18T10:27:51;30.30;99.90
2202;DHT22;1107;48.654;9.250;2022-08-18T10:30:47;29.80;99.90
2202;DHT22;1107;48.654;9.250;2022-08-18T10:34:03;29.70;99.90
2202;DHT22;1107;48.654;9.250;2022-08-18T10:36:46;29.70;99.90
2202;DHT22;1107;48.654;9.250;2022-08-18T10:39:16;29.90;99.90
2202;DHT22;1107;48.654;9.250;2022-08-18T10:41:55;29.90;99.90
2202;DHT22;1107;48.654;9.250;2022-08-18T10:44:25;30.30;99.90
2202;DHT22;1107;48.654;9.250;2022-08-18T10:46:53;30.00;99.90
2202;DHT22;1107;48.654;9.250;2022-08-18T10:49:24;29.10;99.90
2202;DHT22;1107;48.654;9.250;2022-08-18T11:04:05;27.60;99.90
2202;DHT22;1107;48.654;9.250;2022-08-18T11:06:39;27.50;99.90
2202;DHT22;1107;48.654;9.250;2022-08-18T11:09:08;27.40;99.90
2202;DHT22;1107;48.654;9.250;2022-08-18T11:11:38;27.80;99.90
2202;DHT22;1107;48.654;9.250;2022-08-18T11:14:17;28.40;99.90
2202;DHT22;1107;48.654;9.250;2022-08-18T11:16:53;29.00;99.90
2202;DHT22;1107;48.654;9.250;2022-08-18T11:19:25;29.90;99.90
2202;DHT22;1107;48.654;9.250;2022-08-18T11:21:53;30.00;99.90
2202;DHT22;1107;48.654;9.250;2022-08-18T11:24:23;30.30;99.90
2202;DHT22;1107;48.654;9.250;2022-08-18T11:26:53;30.10;99.90
2202;DHT22;1107;48.654;9.250;2022-08-18T11:29:27;29.90;99.90
2202;DHT22;1107;48.654;9.250;2022-08-18T11:31:58;29.80;99.90
2202;DHT22;1107;48.654;9.250;2022-08-18T11:34:35;29.80;99.90
2202;DHT22;1107;48.654;9.250;2022-08-18T11:37:06;29.70;99.90
2202;DHT22;1107;48.654;9.250;2022-08-18T11:39:41;30.30;99.90
2202;DHT22;1107;48.654;9.250;2022-08-18T11:42:14;30.60;99.90
2202;DHT22;1107;48.654;9.250;2022-08-18T11:44:42;30.60;99.90
2202;DHT22;1107;48.654;9.250;2022-08-18T11:47:13;31.00;99.90
2202;DHT22;1107;48.654;9.250;2022-08-18T11:49:52;31.10;99.90
2202;DHT22;1107;48.654;9.250;2022-08-18T11:52:24;30.30;99.90
2202;DHT22;1107;48.654;9.250;2022-08-18T11:54:51;30.40;99.90
2202;DHT22;1107;48.654;9.250;2022-08-18T11:57:37;30.40;99.90
2202;DHT22;1107;48.654;9.250;2022-08-18T12:00:38;30.40;99.90
2202;DHT22;1107;48.654;9.250;2022-08-18T12:03:11;30.40;99.90
2202;DHT22;1107;48.654;9.250;2022-08-18T12:05:46;30.10;99.90
2202;DHT22;1107;48.654;9.250;2022-08-18T12:08:19;30.20;99.90
2202;DHT22;1107;48.654;9.250;2022-08-18T12:10:48;29.80;99.90
2202;DHT22;1107;48.654;9.250;2022-08-18T12:13:28;29.90;99.90
2202;DHT22;1107;48.654;9.250;2022-08-18T12:16:11;30.30;99.90
2202;DHT22;1107;48.654;9.250;2022-08-18T12:18:38;30.60;99.90
2202;DHT22;1107;48.654;9.250;2022-08-18T12:21:06;29.90;99.90
2202;DHT22;1107;48.654;9.250;2022-08-18T12:23:38;29.50;99.90
2202;DHT22;1107;48.654;9.250;2022-08-18T12:26:05;30.20;99.90
2202;DHT22;1107;48.654;9.250;2022-08-18T12:28:34;30.20;96.90
2202;DHT22;1107;48.654;9.250;2022-08-18T12:31:01;30.30;99.90
2202;DHT22;1107;48.654;9.250;2022-08-18T12:33:28;29.80;97.90
2202;DHT22;1107;48.654;9.250;2022-08-18T12:35:56;29.90;99.90
2202;DHT22;1107;48.654;9.250;2022-08-18T12:38:23;29.80;95.10
2202;DHT22;1107;48.654;9.250;2022-08-18T12:40:50;29.70;93.80
2202;DHT22;1107;48.654;9.250;2022-08-18T12:43:17;29.70;96.90
2202;DHT22;1107;48.654;9.250;2022-08-18T12:45:46;29.30;96.20
2202;DHT22;1107;48.654;9.250;2022-08-18T12:48:13;29.50;97.30
2202;DHT22;1107;48.654;9.250;2022-08-18T12:50:41;29.20;97.80
2202;DHT22;1107;48.654;9.250;2022-08-18T12:53:09;29.00;99.90
2202;DHT22;1107;48.654;9.250;2022-08-18T12:55:39;29.00;99.90
2202;DHT22;1107;48.654;9.250;2022-08-18T12:58:07;28.80;99.90
2202;DHT22;1107;48.654;9.250;2022-08-18T13:00:34;28.80;99.90
2202;DHT22;1107;48.654;9.250;2022-08-18T13:03:03;29.40;99.90
2202;DHT22;1107;48.654;9.250;2022-08-18T13:05:30;29.40;95.10
2202;DHT22;1107;48.654;9.250;2022-08-18T13:07:59;29.40;96.80
2202;DHT22;1107;48.654;9.250;2022-08-18T13:10:26;29.80;95.50
2202;DHT22;1107;48.654;9.250;2022-08-18T13:12:53;30.30;94.60
2202;DHT22;1107;48.654;9.250;2022-08-18T13:15:21;30.70;93.00
2202;DHT22;1107;48.654;9.250;2022-08-18T13:17:49;30.80;92.10
2202;DHT22;1107;48.654;9.250;2022-08-18T13:20:17;31.20;92.90
2202;DHT22;1107;48.654;9.250;2022-08-18T13:22:45;31.30;84.50
2202;DHT22;1107;48.654;9.250;2022-08-18T13:25:14;30.60;70.20
2202;DHT22;1107;48.654;9.250;2022-08-18T13:27:42;29.80;64.40
2202;DHT22;1107;48.654;9.250;2022-08-18T13:30:13;29.20;62.80
2202;DHT22;1107;48.654;9.250;2022-08-18T13:32:40;28.70;71.30
2202;DHT22;1107;48.654;9.250;2022-08-18T13:35:09;28.40;72.60
2202;DHT22;1107;48.654;9.250;2022-08-18T13:37:37;28.40;78.60
2202;DHT22;1107;48.654;9.250;2022-08-18T13:40:07;28.90;89.50
2202;DHT22;1107;48.654;9.250;2022-08-18T13:42:43;29.60;93.90
2202;DHT22;1107;48.654;9.250;2022-08-18T13:45:11;29.70;86.40
2202;DHT22;1107;48.654;9.250;2022-08-18T13:47:39;30.00;74.40
2202;DHT22;1107;48.654;9.250;2022-08-18T13:50:08;29.80;70.40
2202;DHT22;1107;48.654;9.250;2022-08-18T13:52:38;30.10;85.00
2202;DHT22;1107;48.654;9.250;2022-08-18T13:55:06;30.60;84.80
2202;DHT22;1107;48.654;9.250;2022-08-18T13:57:36;31.10;79.90
2202;DHT22;1107;48.654;9.250;2022-08-18T14:00:05;31.40;81.30
2202;DHT22;1107;48.654;9.250;2022-08-18T14:02:32;31.00;70.70
2202;DHT22;1107;48.654;9.250;2022-08-18T14:05:00;30.50;55.80
2202;DHT22;1107;48.654;9.250;2022-08-18T14:07:27;29.90;59.60
2202;DHT22;1107;48.654;9.250;2022-08-18T14:09:55;29.30;60.30
2202;DHT22;1107;48.654;9.250;2022-08-18T14:12:23;29.00;64.10
2202;DHT22;1107;48.654;9.250;2022-08-18T14:14:51;28.80;64.40
2202;DHT22;1107;48.654;9.250;2022-08-18T14:17:19;28.60;64.00
2202;DHT22;1107;48.654;9.250;2022-08-18T14:19:46;28.50;67.40
2202;DHT22;1107;48.654;9.250;2022-08-18T14:22:31;28.90;70.20
2202;DHT22;1107;48.654;9.250;2022-08-18T14:25:17;29.50;65.40
2202;DHT22;1107;48.654;9.250;2022-08-18T14:28:02;29.60;62.20
2202;DHT22;1107;48.654;9.250;2022-08-18T14:30:29;30.10;59.70
2202;DHT22;1107;48.654;9.250;2022-08-18T14:32:57;30.20;58.90
2202;DHT22;1107;48.654;9.250;2022-08-18T14:35:24;29.90;58.90
2202;DHT22;1107;48.654;9.250;2022-08-18T14:37:51;29.60;58.70
2202;DHT22;1107;48.654;9.250;2022-08-18T14:40:20;29.60;64.20
2202;DHT22;1107;48.654;9.250;2022-08-18T14:42:47;29.60;60.00
2202;DHT22;1107;48.654;9.250;2022-08-18T14:45:14;29.60;58.40
2202;DHT22;1107;48.654;9.250;2022-08-18T14:47:41;29.70;56.20
2202;DHT22;1107;48.654;9.250;2022-08-18T14:50:09;30.10;62.00
2202;DHT22;1107;48.654;9.250;2022-08-18T14:52:39;30.20;56.60
2202;DHT22;1107;48.654;9.250;2022-08-18T14:55:08;29.80;51.40
2202;DHT22;1107;48.654;9.250;2022-08-18T14:57:37;29.50;48.50
2202;DHT22;1107;48.654;9.250;2022-08-18T15:00:08;29.40;52.30
2202;DHT22;1107;48.654;9.250;2022-08-18T15:02:37;29.30;56.70
2202;DHT22;1107;48.654;9.250;2022-08-18T15:05:05;29.20;64.60
2202;DHT22;1107;48.654;9.250;2022-08-18T15:07:33;28.90;67.10
2202;DHT22;1107;48.654;9.250;2022-08-18T15:10:02;28.80;66.10
2202;DHT22;1107;48.654;9.250;2022-08-18T15:12:30;28.70;67.70
2202;DHT22;1107;48.654;9.250;2022-08-18T15:14:58;28.60;63.80
2202;DHT22;1107;48.654;9.250;2022-08-18T15:17:26;28.30;53.50
2202;DHT22;1107;48.654;9.250;2022-08-18T15:19:53;28.00;52.10
2202;DHT22;1107;48.654;9.250;2022-08-18T15:22:20;27.60;52.10
2202;DHT22;1107;48.654;9.250;2022-08-18T15:25:06;27.50;57.60
2202;DHT22;1107;48.654;9.250;2022-08-18T15:27:51;27.30;62.80
2202;DHT22;1107;48.654;9.250;2022-08-18T15:30:19;27.10;59.80
2202;DHT22;1107;48.654;9.250;2022-08-18T15:32:47;27.00;58.90
2202;DHT22;1107;48.654;9.250;2022-08-18T15:35:15;26.90;63.00
2202;DHT22;1107;48.654;9.250;2022-08-18T15:37:44;26.90;66.90
2202;DHT22;1107;48.654;9.250;2022-08-18T15:40:14;26.90;68.40
2202;DHT22;1107;48.654;9.250;2022-08-18T15:42:44;26.90;63.30
2202;DHT22;1107;48.654;9.250;2022-08-18T15:45:14;26.90;65.60
2202;DHT22;1107;48.654;9.250;2022-08-18T15:47:42;26.90;64.70
2202;DHT22;1107;48.654;9.250;2022-08-18T15:50:10;26.90;73.70
2202;DHT22;1107;48.654;9.250;2022-08-18T15:52:45;26.90;83.00
2202;DHT22;1107;48.654;9.250;2022-08-18T15:55:12;26.80;85.60
2202;DHT22;1107;48.654;9.250;2022-08-18T15:57:39;26.80;90.60
2202;DHT22;1107;48.654;9.250;2022-08-18T16:00:08;26.80;93.50
2202;DHT22;1107;48.654;9.250;2022-08-18T16:02:36;26.90;95.70
2202;DHT22;1107;48.654;9.250;2022-08-18T16:05:06;26.90;99.90
2202;DHT22;1107;48.654;9.250;2022-08-18T16:07:34;26.90;99.50
2202;DHT22;1107;48.654;9.250;2022-08-18T16:10:03;26.80;99.30
2202;DHT22;1107;48.654;9.250;2022-08-18T16:12:30;26.80;99.90
2202;DHT22;1107;48.654;9.250;2022-08-18T16:14:58;26.80;99.90
2202;DHT22;1107;48.654;9.250;2022-08-18T16:17:28;26.80;99.90
2202;DHT22;1107;48.654;9.250;2022-08-18T16:19:56;26.80;99.90
2202;DHT22;1107;48.654;9.250;2022-08-18T16:22:26;26.80;99.90
2202;DHT22;1107;48.654;9.250;2022-08-18T16:24:53;26.70;99.90
2202;DHT22;1107;48.654;9.250;2022-08-18T16:27:20;26.70;99.90
2202;DHT22;1107;48.654;9.250;2022-08-18T16:29:47;26.60;99.90
2202;DHT22;1107;48.654;9.250;2022-08-18T16:32:14;26.60;99.90
2202;DHT22;1107;48.654;9.250;2022-08-18T16:34:42;26.50;99.90
2202;DHT22;1107;48.654;9.250;2022-08-18T16:37:09;26.50;99.90
2202;DHT22;1107;48.654;9.250;2022-08-18T16:39:37;26.50;99.90
2202;DHT22;1107;48.654;9.250;2022-08-18T16:42:05;26.40;99.90
2202;DHT22;1107;48.654;9.250;2022-08-18T16:44:32;26.30;99.90
2202;DHT22;1107;48.654;9.250;2022-08-18T16:47:03;26.20;99.90
2202;DHT22;1107;48.654;9.250;2022-08-18T16:49:30;26.10;99.90
2202;DHT22;1107;48.654;9.250;2022-08-18T16:51:58;26.00;99.90
2202;DHT22;1107;48.654;9.250;2022-08-18T16:54:26;25.90;99.90
2202;DHT22;1107;48.654;9.250;2022-08-18T16:56:55;25.80;99.90
2202;DHT22;1107;48.654;9.250;2022-08-18T16:59:22;25.80;99.90